createdAt,value
2022-10-11T00:00:46.993Z,96.15
2022-10-11T00:01:47.055Z,96.25
2022-10-11T00:02:46.929Z,96.25
2022-10-11T00:03:46.968Z,96.46
2022-10-11T00:04:46.934Z,96.67
2022-10-11T00:05:46.911Z,96.77
2022-10-11T00:06:46.888Z,96.88
2022-10-11T00:07:46.902Z,96.88
2022-10-11T00:08:46.867Z,96.67
2022-10-11T00:09:46.916Z,96.46
2022-10-11T00:10:46.860Z,96.25
2022-10-11T00:11:46.872Z,96.05
2022-10-11T00:12:46.832Z,96.05
2022-10-11T00:13:46.813Z,96.20
2022-10-11T00:14:46.832Z,96.20
2022-10-11T00:15:46.816Z,96.20
2022-10-11T00:16:46.770Z,96.20
2022-10-11T00:17:46.772Z,96.30
2022-10-11T00:18:46.763Z,96.41
2022-10-11T00:19:46.794Z,96.41
2022-10-11T00:20:46.744Z,96.30
2022-10-11T00:21:46.723Z,96.30
2022-10-11T00:22:46.712Z,96.24
2022-10-11T00:23:46.704Z,96.24
2022-10-11T00:24:46.693Z,96.34
2022-10-11T00:25:46.722Z,96.34
2022-10-11T00:26:47.167Z,96.45
2022-10-11T00:27:46.669Z,96.45
2022-10-11T00:28:46.722Z,96.55
2022-10-11T00:29:46.634Z,96.55
2022-10-11T00:30:46.656Z,96.45
2022-10-11T00:31:46.643Z,96.45
2022-10-11T00:32:46.636Z,96.34
2022-10-11T00:33:46.626Z,96.24
2022-10-11T00:34:46.608Z,96.14
2022-10-11T00:35:46.585Z,96.14
2022-10-11T00:36:46.575Z,96.14
2022-10-11T00:37:46.559Z,96.24
2022-10-11T00:38:47.481Z,96.34
2022-10-11T00:39:46.546Z,96.34
2022-10-11T00:40:46.569Z,96.45
2022-10-11T00:41:46.530Z,96.34
2022-10-11T00:42:46.532Z,96.45
2022-10-11T00:43:46.478Z,96.49
2022-10-11T00:44:46.477Z,96.49
2022-10-11T00:45:46.455Z,96.49
2022-10-11T00:46:46.447Z,96.49
2022-10-11T00:47:46.435Z,96.59
2022-10-11T00:48:46.460Z,96.70
2022-10-11T00:49:46.415Z,96.80
2022-10-11T00:50:46.414Z,96.80
2022-10-11T00:51:46.391Z,96.91
2022-10-11T00:52:46.370Z,96.91
2022-10-11T00:53:46.374Z,96.91
2022-10-11T00:54:46.559Z,96.70
2022-10-11T00:55:46.389Z,96.59
2022-10-11T00:56:46.337Z,96.59
2022-10-11T00:57:46.332Z,96.59
2022-10-11T00:58:46.310Z,96.49
2022-10-11T00:59:46.312Z,96.49
2022-10-11T01:00:46.300Z,96.49
2022-10-11T01:01:46.373Z,96.49
2022-10-11T01:02:46.263Z,96.28
2022-10-11T01:03:46.265Z,96.28
2022-10-11T01:04:46.276Z,96.44
2022-10-11T01:05:47.202Z,96.53
2022-10-11T01:06:46.230Z,96.64
2022-10-11T01:07:46.232Z,96.70
2022-10-11T01:08:46.282Z,96.70
2022-10-11T01:09:46.246Z,96.70
2022-10-11T01:10:46.193Z,96.53
2022-10-11T01:11:46.172Z,96.53
2022-10-11T01:12:46.164Z,96.53
2022-10-11T01:13:46.147Z,96.64
2022-10-11T01:14:46.137Z,96.64
2022-10-11T01:15:46.157Z,96.44
2022-10-11T01:16:46.115Z,96.33
2022-10-11T01:17:46.112Z,96.33
2022-10-11T01:18:46.129Z,96.44
2022-10-11T01:19:46.075Z,96.64
2022-10-11T01:20:46.073Z,96.64
2022-10-11T01:21:46.063Z,96.74
2022-10-11T01:22:46.096Z,96.74
2022-10-11T01:23:46.048Z,96.74
2022-10-11T01:24:46.057Z,96.84
2022-10-11T01:25:46.022Z,96.95
2022-10-11T01:26:46.005Z,97.05
2022-10-11T01:27:46.005Z,97.16
2022-10-11T01:28:46.102Z,97.26
2022-10-11T01:29:45.976Z,97.36
2022-10-11T01:30:45.966Z,97.36
2022-10-11T01:31:45.967Z,97.36
2022-10-11T01:32:45.979Z,97.36
2022-10-11T01:33:45.929Z,97.36
2022-10-11T01:34:46.598Z,97.36
2022-10-11T01:35:45.940Z,97.36
2022-10-11T01:36:45.956Z,97.36
2022-10-11T01:37:45.883Z,97.26
2022-10-11T01:38:46.221Z,97.16
2022-10-11T01:39:45.861Z,97.05
2022-10-11T01:40:45.856Z,97.05
2022-10-11T01:41:45.843Z,96.95
2022-10-11T01:42:45.867Z,96.95
2022-10-11T01:43:45.824Z,96.84
2022-10-11T01:44:45.828Z,96.74
2022-10-11T01:45:45.793Z,96.79
2022-10-11T01:46:45.782Z,96.89
2022-10-11T01:47:45.830Z,97.09
2022-10-11T01:48:45.794Z,97.20
2022-10-11T01:49:45.752Z,97.30
2022-10-11T01:50:45.740Z,97.36
2022-10-11T01:51:47.528Z,97.51
2022-10-11T01:52:45.738Z,97.51
2022-10-11T01:53:45.840Z,97.61
2022-10-11T01:55:08.053Z,97.72
2022-10-11T01:55:46.685Z,97.82
2022-10-11T01:56:45.692Z,97.92
2022-10-11T01:57:45.732Z,97.82
2022-10-11T01:58:45.669Z,97.82
2022-10-11T01:59:45.632Z,97.72
2022-10-11T02:00:45.626Z,97.82
2022-10-11T02:01:45.780Z,97.92
2022-10-11T02:02:45.636Z,98.02
2022-10-11T02:03:45.595Z,98.23
2022-10-11T02:04:45.583Z,98.33
2022-10-11T02:05:45.595Z,98.13
2022-10-11T02:06:45.554Z,98.13
2022-10-11T02:07:45.605Z,98.23
2022-10-11T02:08:45.573Z,98.23
2022-10-11T02:09:45.524Z,98.13
2022-10-11T02:10:45.516Z,98.23
2022-10-11T02:11:45.506Z,98.13
2022-10-11T02:12:45.520Z,98.13
2022-10-11T02:13:45.476Z,97.92
2022-10-11T02:14:45.506Z,97.82
2022-10-11T02:15:45.471Z,97.82
2022-10-11T02:16:45.468Z,97.72
2022-10-11T02:17:45.478Z,97.61
2022-10-11T02:18:45.437Z,97.55
2022-10-11T02:19:45.426Z,97.55
2022-10-11T02:20:45.465Z,97.55
2022-10-11T02:21:45.401Z,97.55
2022-10-11T02:22:45.395Z,97.55
2022-10-11T02:23:45.383Z,97.66
2022-10-11T02:24:45.369Z,97.76
2022-10-11T02:25:45.348Z,97.76
2022-10-11T02:26:45.363Z,97.86
2022-10-11T02:27:45.323Z,97.97
2022-10-11T02:28:45.443Z,98.07
2022-10-11T02:29:45.319Z,98.18
2022-10-11T02:30:45.299Z,98.28
2022-10-11T02:31:45.284Z,98.28
2022-10-11T02:32:45.320Z,98.28
2022-10-11T02:33:45.264Z,98.28
2022-10-11T02:34:45.298Z,98.28
2022-10-11T02:35:45.255Z,98.18
2022-10-11T02:36:45.232Z,98.18
2022-10-11T02:37:45.238Z,98.07
2022-10-11T02:38:45.223Z,98.01
2022-10-11T02:39:45.201Z,97.91
2022-10-11T02:40:45.180Z,98.01
2022-10-11T02:41:45.171Z,98.01
2022-10-11T02:42:45.162Z,98.11
2022-10-11T02:43:45.172Z,98.22
2022-10-11T02:44:45.189Z,98.22
2022-10-11T02:45:45.122Z,98.32
2022-10-11T02:46:45.136Z,98.53
2022-10-11T02:47:45.097Z,98.63
2022-10-11T02:48:45.105Z,98.63
2022-10-11T02:49:45.087Z,98.74
2022-10-11T02:50:45.153Z,98.84
2022-10-11T02:51:45.070Z,98.84
2022-10-11T02:52:45.061Z,98.94
2022-10-11T02:53:45.043Z,99.05
2022-10-11T02:54:45.033Z,99.15
2022-10-11T02:55:45.032Z,99.25
2022-10-11T02:56:45.023Z,99.35
2022-10-11T02:57:44.997Z,99.46
2022-10-11T02:58:45.021Z,99.66
2022-10-11T02:59:44.974Z,99.66
2022-10-11T03:00:44.964Z,99.77
2022-10-11T03:01:44.984Z,99.87
2022-10-11T03:02:44.955Z,99.87
2022-10-11T03:03:44.938Z,99.98
2022-10-11T03:04:44.917Z,99.98
2022-10-11T03:05:44.917Z,99.99
2022-10-11T03:06:44.885Z,99.99
2022-10-11T03:07:44.904Z,99.99
2022-10-11T03:08:44.909Z,99.99
2022-10-11T03:09:44.866Z,99.99
2022-10-11T03:10:44.860Z,99.99
2022-10-11T03:11:44.827Z,99.99
2022-10-11T03:12:44.847Z,99.99
2022-10-11T03:13:44.809Z,99.99
2022-10-11T03:14:44.918Z,99.99
2022-10-11T03:15:44.789Z,99.99
2022-10-11T03:16:44.779Z,99.99
2022-10-11T03:17:44.769Z,99.99
2022-10-11T03:18:44.778Z,99.99
2022-10-11T03:19:44.762Z,99.99
2022-10-11T03:20:44.777Z,99.99
2022-10-11T03:21:44.727Z,99.99
2022-10-11T03:22:44.720Z,99.99
2022-10-11T03:23:44.728Z,99.99
2022-10-11T03:24:44.701Z,99.99
2022-10-11T03:25:44.717Z,99.99
2022-10-11T03:26:44.660Z,99.99
2022-10-11T03:27:44.660Z,99.99
2022-10-11T03:28:44.754Z,99.99
2022-10-11T03:29:44.657Z,99.99
2022-10-11T03:30:44.621Z,99.99
2022-10-11T03:31:44.776Z,99.99
2022-10-11T03:32:44.622Z,99.99
2022-10-11T03:33:44.595Z,99.99
2022-10-11T03:34:44.611Z,99.99
2022-10-11T03:35:44.573Z,99.99
2022-10-11T03:36:44.607Z,99.99
2022-10-11T03:37:44.574Z,99.99
2022-10-11T03:38:44.540Z,99.99
2022-10-11T03:39:44.532Z,99.99
2022-10-11T03:40:44.536Z,99.99
2022-10-11T03:41:44.514Z,99.99
2022-10-11T03:42:44.483Z,99.99
2022-10-11T03:43:44.768Z,99.99
2022-10-11T03:44:44.485Z,99.99
2022-10-11T03:45:44.448Z,99.99
2022-10-11T03:46:44.440Z,99.99
2022-10-11T03:47:44.456Z,99.99
2022-10-11T03:48:44.420Z,99.99
2022-10-11T03:49:44.479Z,99.99
2022-10-11T03:50:44.417Z,99.99
2022-10-11T03:51:44.386Z,99.99
2022-10-11T03:52:44.383Z,99.99
2022-10-11T03:53:44.361Z,99.99
2022-10-11T03:54:44.359Z,99.99
2022-10-11T03:55:44.353Z,99.99
2022-10-11T03:56:44.397Z,99.99
2022-10-11T03:57:44.329Z,99.99
2022-10-11T03:58:44.316Z,99.99
2022-10-11T03:59:44.336Z,99.99
2022-10-11T04:00:44.299Z,99.99
2022-10-11T04:01:44.329Z,99.99
2022-10-11T04:02:44.435Z,99.99
2022-10-11T04:03:44.285Z,99.99
2022-10-11T04:04:44.266Z,99.99
2022-10-11T04:05:44.238Z,99.99
2022-10-11T04:06:44.554Z,99.99
2022-10-11T04:07:44.228Z,99.99
2022-10-11T04:08:44.198Z,99.99
2022-10-11T04:09:44.204Z,99.99
2022-10-11T04:10:44.210Z,99.99
2022-10-11T04:11:44.391Z,99.99
2022-10-11T04:12:44.176Z,99.99
2022-10-11T04:13:44.156Z,99.99
2022-10-11T04:14:44.293Z,99.99
2022-10-11T04:15:44.130Z,99.99
2022-10-11T04:16:44.112Z,99.99
2022-10-11T04:17:44.220Z,99.99
2022-10-11T04:18:44.242Z,99.99
2022-10-11T04:19:44.132Z,99.99
2022-10-11T04:20:44.073Z,99.99
2022-10-11T04:21:44.101Z,99.99
2022-10-11T04:22:44.050Z,99.99
2022-10-11T04:23:44.041Z,99.99
2022-10-11T04:24:44.049Z,99.99
2022-10-11T04:25:44.014Z,99.99
2022-10-11T04:26:44.053Z,99.99
2022-10-11T04:27:43.991Z,99.99
2022-10-11T04:28:44.082Z,99.99
2022-10-11T04:29:44.030Z,99.99
2022-10-11T04:30:43.972Z,99.99
2022-10-11T04:31:43.974Z,99.99
2022-10-11T04:32:43.972Z,99.99
2022-10-11T04:33:43.938Z,99.99
2022-10-11T04:34:43.918Z,99.99
2022-10-11T04:35:43.921Z,99.99
2022-10-11T04:36:47.624Z,99.99
2022-10-11T04:37:45.080Z,99.99
2022-10-11T04:38:43.924Z,99.99
2022-10-11T04:39:44.894Z,99.99
2022-10-11T04:40:43.860Z,99.99
2022-10-11T04:41:43.838Z,99.99
2022-10-11T04:42:43.829Z,99.99
2022-10-11T04:43:43.951Z,99.99
2022-10-11T04:44:43.827Z,99.99
2022-10-11T04:45:43.799Z,99.99
2022-10-11T04:46:43.806Z,99.99
2022-10-11T04:47:43.776Z,99.99
2022-10-11T04:48:43.765Z,99.99
2022-10-11T04:49:43.795Z,99.99
2022-10-11T04:50:43.737Z,99.99
2022-10-11T04:51:43.757Z,99.99
2022-10-11T04:52:43.726Z,99.99
2022-10-11T04:53:43.700Z,99.99
2022-10-11T04:54:43.708Z,99.99
2022-10-11T04:55:43.737Z,99.99
2022-10-11T04:56:43.679Z,99.99
2022-10-11T04:57:43.666Z,99.99
2022-10-11T04:58:43.648Z,99.99
2022-10-11T04:59:47.881Z,99.99
2022-10-11T05:00:44.778Z,99.99
2022-10-11T05:01:43.732Z,99.99
2022-10-11T05:02:44.583Z,99.99
2022-10-11T05:03:43.730Z,99.99
2022-10-11T05:04:43.599Z,99.99
2022-10-11T05:05:43.575Z,99.99
2022-10-11T05:06:43.720Z,99.99
2022-10-11T05:07:43.563Z,99.99
2022-10-11T05:08:43.560Z,99.99
2022-10-11T05:09:43.536Z,99.99
2022-10-11T05:10:43.521Z,99.99
2022-10-11T05:11:43.540Z,99.99
2022-10-11T05:12:43.501Z,99.99
2022-10-11T05:13:43.501Z,99.99
2022-10-11T05:14:43.872Z,99.99
2022-10-11T05:15:43.462Z,99.99
2022-10-11T05:16:43.472Z,99.99
2022-10-11T05:17:43.476Z,99.99
2022-10-11T05:18:43.452Z,99.99
2022-10-11T05:19:43.912Z,99.99
2022-10-11T05:20:48.624Z,99.99
2022-10-11T05:21:43.404Z,99.99
2022-10-11T05:22:43.387Z,99.99
2022-10-11T05:23:43.405Z,99.99
2022-10-11T05:24:43.368Z,99.99
2022-10-11T05:25:43.352Z,99.99
2022-10-11T05:26:43.401Z,99.99
2022-10-11T05:27:43.334Z,99.99
2022-10-11T05:28:43.419Z,99.99
2022-10-11T05:29:43.341Z,99.99
2022-10-11T05:30:43.315Z,99.99
2022-10-11T05:31:43.316Z,99.96
2022-10-11T05:32:43.285Z,99.91
2022-10-11T05:33:43.273Z,99.80
2022-10-11T05:34:43.287Z,99.80
2022-10-11T05:35:43.247Z,99.80
2022-10-11T05:36:43.238Z,99.80
2022-10-11T05:37:43.246Z,99.80
2022-10-11T05:38:43.205Z,99.80
2022-10-11T05:39:43.577Z,99.80
2022-10-11T05:40:43.212Z,99.80
2022-10-11T05:41:43.267Z,99.80
2022-10-11T05:42:43.209Z,99.80
2022-10-11T05:43:43.158Z,99.99
2022-10-11T05:44:43.150Z,99.99
2022-10-11T05:45:43.148Z,99.99
2022-10-11T05:46:43.486Z,99.99
2022-10-11T05:47:43.117Z,99.91
2022-10-11T05:48:43.100Z,99.80
2022-10-11T05:49:43.108Z,99.91
2022-10-11T05:50:43.088Z,99.80
2022-10-11T05:51:43.117Z,99.80
2022-10-11T05:52:43.068Z,99.70
2022-10-11T05:53:43.050Z,99.70
2022-10-11T05:54:43.059Z,99.60
2022-10-11T05:55:43.051Z,99.65
2022-10-11T05:56:43.020Z,99.65
2022-10-11T05:57:43.039Z,99.55
2022-10-11T05:58:43.098Z,99.24
2022-10-11T05:59:43.019Z,99.24
2022-10-11T06:00:42.980Z,99.14
2022-10-11T06:01:43.057Z,99.18
2022-10-11T06:02:42.960Z,99.18
2022-10-11T06:03:42.961Z,99.08
2022-10-11T06:04:42.972Z,98.97
2022-10-11T06:05:42.917Z,98.97
2022-10-11T06:06:42.973Z,98.87
2022-10-11T06:07:42.893Z,98.87
2022-10-11T06:08:42.953Z,98.87
2022-10-11T06:09:42.863Z,98.77
2022-10-11T06:10:42.893Z,98.87
2022-10-11T06:11:42.849Z,98.77
2022-10-11T06:12:42.843Z,98.77
2022-10-11T06:13:42.845Z,98.77
2022-10-11T06:14:42.846Z,98.66
2022-10-11T06:15:42.842Z,98.66
2022-10-11T06:16:42.804Z,98.66
2022-10-11T06:17:42.791Z,98.66
2022-10-11T06:18:42.775Z,98.77
2022-10-11T06:19:42.760Z,98.77
2022-10-11T06:20:42.774Z,98.87
2022-10-11T06:21:42.764Z,98.97
2022-10-11T06:22:42.743Z,99.08
2022-10-11T06:23:42.759Z,99.08
2022-10-11T06:24:42.720Z,99.18
2022-10-11T06:25:42.706Z,99.18
2022-10-11T06:26:42.706Z,99.18
2022-10-11T06:27:42.679Z,99.18
2022-10-11T06:28:42.838Z,99.18
2022-10-11T06:29:42.664Z,99.18
2022-10-11T06:30:42.649Z,99.29
2022-10-11T06:31:42.640Z,99.29
2022-10-11T06:32:43.085Z,99.39
2022-10-11T06:33:42.637Z,99.39
2022-10-11T06:34:42.610Z,99.44
2022-10-11T06:35:42.605Z,99.44
2022-10-11T06:36:42.577Z,99.44
2022-10-11T06:37:42.592Z,99.34
2022-10-11T06:38:45.177Z,99.44
2022-10-11T06:39:42.547Z,99.44
2022-10-11T06:40:42.527Z,99.44
2022-10-11T06:41:42.539Z,99.34
2022-10-11T06:42:42.563Z,99.34
2022-10-11T06:43:42.506Z,99.34
2022-10-11T06:44:42.498Z,99.24
2022-10-11T06:45:42.530Z,99.24
2022-10-11T06:46:42.523Z,99.34
2022-10-11T06:47:42.502Z,99.34
2022-10-11T06:48:42.494Z,99.34
2022-10-11T06:49:43.394Z,99.40
2022-10-11T06:50:59.220Z,99.51
2022-10-11T06:51:43.420Z,99.61
2022-10-11T06:52:42.450Z,99.71
2022-10-11T06:53:42.702Z,99.61
2022-10-11T06:54:45.117Z,99.56
2022-10-11T06:55:42.375Z,99.56
2022-10-11T06:56:42.373Z,99.56
2022-10-11T06:57:42.395Z,99.56
2022-10-11T06:58:42.340Z,99.66
2022-10-11T06:59:42.462Z,99.66
2022-10-11T07:00:42.448Z,99.66
2022-10-11T07:01:42.297Z,99.77
2022-10-11T07:02:42.323Z,99.77
2022-10-11T07:03:42.309Z,99.87
2022-10-11T07:04:42.274Z,99.93
2022-10-11T07:05:42.252Z,99.82
2022-10-11T07:06:42.285Z,99.82
2022-10-11T07:07:42.262Z,99.82
2022-10-11T07:08:42.243Z,99.82
2022-10-11T07:09:42.215Z,99.82
2022-10-11T07:10:43.050Z,99.82
2022-10-11T07:11:42.204Z,99.78
2022-10-11T07:12:42.189Z,99.78
2022-10-11T07:13:42.988Z,99.88
2022-10-11T07:14:43.114Z,99.78
2022-10-11T07:15:42.164Z,99.88
2022-10-11T07:16:42.171Z,99.78
2022-10-11T07:17:42.129Z,99.88
2022-10-11T07:18:42.115Z,99.88
2022-10-11T07:19:42.105Z,99.84
2022-10-11T07:20:42.089Z,99.94
2022-10-11T07:21:42.089Z,99.94
2022-10-11T07:22:42.128Z,99.94
2022-10-11T07:23:42.057Z,99.94
2022-10-11T07:24:42.104Z,99.90
2022-10-11T07:25:42.044Z,99.99
2022-10-11T07:26:42.090Z,99.99
2022-10-11T07:27:42.039Z,99.90
2022-10-11T07:28:42.070Z,99.90
2022-10-11T07:29:42.013Z,99.90
2022-10-11T07:30:41.983Z,99.95
2022-10-11T07:31:42.017Z,99.95
2022-10-11T07:32:41.978Z,99.95
2022-10-11T07:33:42.106Z,99.95
2022-10-11T07:34:41.959Z,99.85
2022-10-11T07:35:45.953Z,99.85
2022-10-11T07:36:42.944Z,99.85
2022-10-11T07:37:41.925Z,99.80
2022-10-11T07:38:41.894Z,99.80
2022-10-11T07:39:41.881Z,99.80
2022-10-11T07:40:41.902Z,99.80
2022-10-11T07:41:45.715Z,99.80
2022-10-11T07:42:41.860Z,99.80
2022-10-11T07:43:41.910Z,99.80
2022-10-11T07:44:41.872Z,99.76
2022-10-11T07:45:41.835Z,99.76
2022-10-11T07:46:41.812Z,99.76
2022-10-11T07:47:41.820Z,99.76
2022-10-11T07:48:41.823Z,99.76
2022-10-11T07:49:41.816Z,99.65
2022-10-11T07:50:41.773Z,99.60
2022-10-11T07:51:41.759Z,99.60
2022-10-11T07:52:41.795Z,99.60
2022-10-11T07:53:41.820Z,99.60
2022-10-11T07:54:41.749Z,99.51
2022-10-11T07:55:41.712Z,99.51
2022-10-11T07:56:41.738Z,99.40
2022-10-11T07:57:41.680Z,99.35
2022-10-11T07:58:41.675Z,99.25
2022-10-11T07:59:41.725Z,99.15
2022-10-11T08:00:41.651Z,99.05
2022-10-11T08:01:41.713Z,98.84
2022-10-11T08:02:41.616Z,98.84
2022-10-11T08:03:41.624Z,98.79
2022-10-11T08:04:41.762Z,98.69
2022-10-11T08:05:41.603Z,98.59
2022-10-11T08:06:41.595Z,98.59
2022-10-11T08:07:41.606Z,98.49
2022-10-11T08:08:41.600Z,98.49
2022-10-11T08:09:41.549Z,98.38
2022-10-11T08:10:41.555Z,98.33
2022-10-11T08:11:41.560Z,98.24
2022-10-11T08:12:41.529Z,98.24
2022-10-11T08:13:41.541Z,98.24
2022-10-11T08:14:41.539Z,98.13
2022-10-11T08:15:41.526Z,98.08
2022-10-11T08:16:41.469Z,98.08
2022-10-11T08:17:41.478Z,97.99
2022-10-11T08:18:41.481Z,97.88
2022-10-11T08:19:41.452Z,97.78
2022-10-11T08:20:41.488Z,97.67
2022-10-11T08:21:41.450Z,97.42
2022-10-11T08:22:41.413Z,97.12
2022-10-11T08:23:41.431Z,97.02
2022-10-11T08:24:41.380Z,96.91
2022-10-11T08:25:41.369Z,96.81
2022-10-11T08:26:41.398Z,96.70
2022-10-11T08:27:41.362Z,96.56
2022-10-11T08:28:41.393Z,96.56
2022-10-11T08:29:41.353Z,96.45
2022-10-11T08:30:41.359Z,96.35
2022-10-11T08:31:41.321Z,96.31
2022-10-11T08:32:41.413Z,96.20
2022-10-11T08:33:41.459Z,96.10
2022-10-11T08:34:41.272Z,95.90
2022-10-11T08:35:41.311Z,95.69
2022-10-11T08:36:41.261Z,95.49
2022-10-11T08:37:41.240Z,95.24
2022-10-11T08:38:41.244Z,95.14
2022-10-11T08:39:41.231Z,95.03
2022-10-11T08:40:41.217Z,94.93
2022-10-11T08:41:41.210Z,94.83
2022-10-11T08:42:41.205Z,94.73
2022-10-11T08:43:41.185Z,94.58
2022-10-11T08:45:08.892Z,94.37
2022-10-11T08:45:42.148Z,94.37
2022-10-11T08:46:41.152Z,94.27
2022-10-11T08:47:41.133Z,94.07
2022-10-11T08:48:41.115Z,94.02
2022-10-11T08:49:41.111Z,93.82
2022-10-11T08:50:41.116Z,93.71
2022-10-11T08:51:41.086Z,93.41
2022-10-11T08:52:41.095Z,93.30
2022-10-11T08:53:41.099Z,93.20
2022-10-11T08:54:41.064Z,93.06
2022-10-11T08:55:41.099Z,93.06
2022-10-11T08:56:41.037Z,93.06
2022-10-11T08:57:41.038Z,92.85
2022-10-11T08:58:41.018Z,92.50
2022-10-11T08:59:41.007Z,92.40
2022-10-11T09:00:40.997Z,92.19
2022-10-11T09:01:41.002Z,92.10
2022-10-11T09:03:06.552Z,91.99
2022-10-11T09:03:41.981Z,91.95
2022-10-11T09:04:40.941Z,92.05
2022-10-11T09:05:40.940Z,92.05
2022-10-11T09:06:40.942Z,92.05
2022-10-11T09:07:40.909Z,91.95
2022-10-11T09:08:40.913Z,91.64
2022-10-11T09:09:41.117Z,91.29
2022-10-11T09:10:40.879Z,90.78
2022-10-11T09:11:40.900Z,90.68
2022-10-11T09:12:41.179Z,90.58
2022-10-11T09:13:40.837Z,90.47
2022-10-11T09:14:40.830Z,90.47
2022-10-11T09:15:40.848Z,90.47
2022-10-11T09:16:40.918Z,90.47
2022-10-11T09:17:40.831Z,90.47
2022-10-11T09:18:40.781Z,90.27
2022-10-11T09:19:40.772Z,90.06
2022-10-11T09:20:41.634Z,89.97
2022-10-11T09:21:40.955Z,89.82
2022-10-11T09:22:40.782Z,89.72
2022-10-11T09:23:40.724Z,89.20
2022-10-11T09:24:40.739Z,88.79
2022-10-11T09:25:40.703Z,88.29
2022-10-11T09:26:40.723Z,87.98
2022-10-11T09:28:01.683Z,87.98
2022-10-11T09:28:41.766Z,88.08
2022-10-11T09:29:40.667Z,88.08
2022-10-11T09:30:40.985Z,88.18
2022-10-11T09:31:40.665Z,88.39
2022-10-11T09:32:40.647Z,88.49
2022-10-11T09:33:40.677Z,88.59
2022-10-11T09:34:40.736Z,88.55
2022-10-11T09:35:41.018Z,88.55
2022-10-11T09:36:40.621Z,88.35
2022-10-11T09:37:40.583Z,88.45
2022-10-11T09:38:40.575Z,88.55
2022-10-11T09:39:40.555Z,88.71
2022-10-11T09:40:40.576Z,88.51
2022-10-11T09:41:40.528Z,88.41
2022-10-11T09:42:40.538Z,88.20
2022-10-11T09:43:40.527Z,88.26
2022-10-11T09:44:40.548Z,88.17
2022-10-11T09:45:44.598Z,88.17
2022-10-11T09:46:41.483Z,87.96
2022-10-11T09:47:40.834Z,87.96
2022-10-11T09:48:40.470Z,88.12
2022-10-11T09:49:40.475Z,88.32
2022-10-11T09:50:40.424Z,88.43
2022-10-11T09:51:40.501Z,88.53
2022-10-11T09:52:40.407Z,88.53
2022-10-11T09:53:40.434Z,88.63
2022-10-11T09:54:41.122Z,88.53
2022-10-11T09:55:40.392Z,88.73
2022-10-11T09:56:40.356Z,88.73
2022-10-11T09:57:40.372Z,88.53
2022-10-11T09:58:40.341Z,88.49
2022-10-11T09:59:40.349Z,88.18
2022-10-11T10:00:40.308Z,88.18
2022-10-11T10:01:41.830Z,88.18
2022-10-11T10:02:40.324Z,88.08
2022-10-11T10:03:40.282Z,87.77
2022-10-11T10:04:40.282Z,87.43
2022-10-11T10:05:40.264Z,87.32
2022-10-11T10:06:40.253Z,87.32
2022-10-11T10:07:40.269Z,87.12
2022-10-11T10:08:40.265Z,87.02
2022-10-11T10:09:40.237Z,87.12
2022-10-11T10:10:41.660Z,86.98
2022-10-11T10:11:40.205Z,86.57
2022-10-11T10:12:40.239Z,85.96
2022-10-11T10:13:40.186Z,85.75
2022-10-11T10:14:40.170Z,85.25
2022-10-11T10:15:40.168Z,85.35
2022-10-11T10:16:40.182Z,85.14
2022-10-11T10:17:40.143Z,85.05
2022-10-11T10:18:40.152Z,85.14
2022-10-11T10:19:44.736Z,85.25
2022-10-11T10:20:41.097Z,84.84
2022-10-11T10:21:40.549Z,84.23
2022-10-11T10:22:40.100Z,84.12
2022-10-11T10:23:40.082Z,83.82
2022-10-11T10:24:40.552Z,83.82
2022-10-11T10:25:43.464Z,83.82
2022-10-11T10:26:41.490Z,83.89
2022-10-11T10:27:40.021Z,83.98
2022-10-11T10:28:40.095Z,83.98
2022-10-11T10:29:40.811Z,83.98
2022-10-11T10:30:40.815Z,84.09
2022-10-11T10:32:01.854Z,84.09
2022-10-11T10:32:43.833Z,83.98
2022-10-11T10:33:41.294Z,84.09
2022-10-11T10:34:39.936Z,84.45
2022-10-11T10:35:41.883Z,84.05
2022-10-11T10:36:40.462Z,83.74
2022-10-11T10:37:40.743Z,83.64
2022-10-11T10:38:40.199Z,83.64
2022-10-11T10:39:40.699Z,83.44
2022-10-11T10:40:41.347Z,83.54
2022-10-11T10:41:39.898Z,83.64
2022-10-11T10:42:40.655Z,83.54
2022-10-11T10:43:40.546Z,83.23
2022-10-11T10:44:39.860Z,82.93
2022-10-11T10:45:40.388Z,82.68
2022-10-11T10:46:39.939Z,82.28
2022-10-11T10:47:39.804Z,82.28
2022-10-11T10:49:18.709Z,82.28
2022-10-11T10:49:53.602Z,82.28
2022-10-11T10:50:42.232Z,82.07
2022-10-11T10:51:39.882Z,82.28
2022-10-11T10:52:39.775Z,82.07
2022-10-11T10:53:41.244Z,82.18
2022-10-11T10:54:39.726Z,82.38
2022-10-11T10:55:39.851Z,81.46
2022-10-11T10:56:41.158Z,81.46
2022-10-11T10:57:39.888Z,81.02
2022-10-11T10:58:39.868Z,80.41
2022-10-11T10:59:39.828Z,80.76
2022-10-11T11:00:40.631Z,80.82
2022-10-11T11:01:39.694Z,81.43
2022-10-11T11:02:41.346Z,81.73
2022-10-11T11:03:40.581Z,82.14
2022-10-11T11:04:39.659Z,80.92
2022-10-11T11:05:40.401Z,80.82
2022-10-11T11:06:39.606Z,81.02
2022-10-11T11:07:41.035Z,81.73
2022-10-11T11:08:39.578Z,81.90
2022-10-11T11:09:39.602Z,81.70
2022-10-11T11:10:40.322Z,81.79
2022-10-11T11:11:39.556Z,81.70
2022-10-11T11:12:39.536Z,81.39
2022-10-11T11:13:40.963Z,80.47
2022-10-11T11:14:40.457Z,80.27
2022-10-11T11:15:39.535Z,81.49
2022-10-11T11:16:39.577Z,81.39
2022-10-11T11:17:39.498Z,81.39
2022-10-11T11:18:39.613Z,81.79
2022-10-11T11:19:39.456Z,80.58
2022-10-11T11:20:39.466Z,80.07
2022-10-11T11:21:41.629Z,79.16
2022-10-11T11:22:39.418Z,79.46
2022-10-11T11:23:39.435Z,79.77
2022-10-11T11:24:39.395Z,79.66
2022-10-11T11:25:43.890Z,79.66
2022-10-11T11:26:44.289Z,80.27
2022-10-11T11:27:39.530Z,79.16
2022-10-11T11:28:39.448Z,79.86
2022-10-11T11:29:40.807Z,80.17
2022-10-11T11:30:39.345Z,80.37
2022-10-11T11:31:39.332Z,79.66
2022-10-11T11:32:44.788Z,79.97
2022-10-11T11:33:41.625Z,79.25
2022-10-11T11:34:39.504Z,78.64
2022-10-11T11:35:40.191Z,78.95
2022-10-11T11:36:39.424Z,79.16
2022-10-11T11:37:40.099Z,78.64
2022-10-11T11:38:43.183Z,78.14
2022-10-11T11:39:39.251Z,77.53
2022-10-11T11:40:39.222Z,78.55
2022-10-11T11:41:39.213Z,78.75
2022-10-11T11:42:39.262Z,77.09
2022-10-11T11:43:39.343Z,78.41
2022-10-11T11:44:39.683Z,76.21
2022-10-11T11:45:39.966Z,76.10
2022-10-11T11:46:39.623Z,75.80
2022-10-11T11:47:39.214Z,75.80
2022-10-11T11:48:39.126Z,76.78
2022-10-11T11:49:39.237Z,76.07
2022-10-11T11:50:39.103Z,75.76
2022-10-11T11:51:39.084Z,75.97
2022-10-11T11:52:39.099Z,76.24
2022-10-11T11:53:39.194Z,75.43
2022-10-11T11:54:39.053Z,74.71
2022-10-11T11:55:39.052Z,74.10
2022-10-11T11:56:39.035Z,74.58
2022-10-11T11:57:39.059Z,75.59
2022-10-11T11:58:39.051Z,75.79
2022-10-11T11:59:39.010Z,76.17
2022-10-11T12:00:39.170Z,75.66
2022-10-11T12:01:39.024Z,73.70
2022-10-11T12:02:39.028Z,73.70
2022-10-11T12:03:41.581Z,74.27
2022-10-11T12:04:38.957Z,72.61
2022-10-11T12:05:38.938Z,72.41
2022-10-11T12:06:47.870Z,72.01
2022-10-11T12:07:39.943Z,71.40
2022-10-11T12:08:38.918Z,72.61
2022-10-11T12:09:38.896Z,72.11
2022-10-11T12:10:38.870Z,72.21
2022-10-11T12:11:38.970Z,72.61
2022-10-11T12:12:38.938Z,71.60
2022-10-11T12:13:38.909Z,71.80
2022-10-11T12:14:38.867Z,72.31
2022-10-11T12:15:38.827Z,72.65
2022-10-11T12:16:38.851Z,73.43
2022-10-11T12:17:38.829Z,73.22
2022-10-11T12:18:42.628Z,71.00
2022-10-11T12:19:38.785Z,71.00
2022-10-11T12:20:38.764Z,71.40
2022-10-11T12:21:39.724Z,72.01
2022-10-11T12:22:38.758Z,72.01
2022-10-11T12:23:38.816Z,71.91
2022-10-11T12:24:38.817Z,71.50
2022-10-11T12:25:38.765Z,71.73
2022-10-11T12:26:38.714Z,71.44
2022-10-11T12:27:38.710Z,71.33
2022-10-11T12:28:38.909Z,71.33
2022-10-11T12:29:38.749Z,70.01
2022-10-11T12:30:38.706Z,70.21
2022-10-11T12:31:45.170Z,69.81
2022-10-11T12:32:39.664Z,69.71
2022-10-11T12:33:40.576Z,69.10
2022-10-11T12:34:38.606Z,68.77
2022-10-11T12:35:39.549Z,68.26
2022-10-11T12:36:38.606Z,68.46
2022-10-11T12:37:39.524Z,69.07
2022-10-11T12:38:38.652Z,69.48
2022-10-11T12:39:39.507Z,70.59
2022-10-11T12:40:38.537Z,70.96
2022-10-11T12:41:38.862Z,71.37
2022-10-11T12:42:38.520Z,71.06
2022-10-11T12:43:38.519Z,71.16
2022-10-11T12:44:38.504Z,71.26
2022-10-11T12:45:38.539Z,71.37
2022-10-11T12:46:38.483Z,71.37
2022-10-11T12:47:38.470Z,72.28
2022-10-11T12:48:40.912Z,73.05
2022-10-11T12:49:38.482Z,73.66
2022-10-11T12:50:38.435Z,73.96
2022-10-11T12:51:38.457Z,74.84
2022-10-11T12:52:38.497Z,75.04